CW0856 Weather Reports


Display with metric or nautical units.
time (UTC)temp
F
wind
direction
speed
MPH
gust
MPH
rain 1hr
in
rain 24hr
in
rain mn
in
humidity
%
barometer
mb
20190325152324 70 227 1.0 4.0 0.00 0.00 0.00 95 1018.8
20190325135323 68 172 0.0 0.0 0.00 0.00 0.00 94 1018.2
20190325125324 68 172 0.0 0.0 0.00 0.00 0.00 94 1017.5
20190325122324 68 172 0.0 0.0 0.00 0.00 0.00 94 1017.2
20190325112323 68 172 0.0 0.0 0.00 0.00 0.00 94 1016.0
20190325105325 68 172 0.0 1.0 0.00 0.00 0.00 94 1016.0
20190325095324 68 167 0.0 6.0 0.00 0.00 0.00 94 1015.6
20190325092323 68 174 1.0 3.0 0.00 0.00 0.00 94 1015.7
20190325075324 68 177 1.0 4.0 0.00 0.00 0.00 93 1015.9
20190325065324 68 178 0.0 3.0 0.00 0.00 0.00 92 1016.9
20190325052323 69 203 0.0 1.0 0.00 0.00 0.00 90 1017.2
20190325042324 69 203 0.0 0.0 0.00 0.00 0.00 89 1017.2
20190325035324 70 203 0.0 4.0 0.00 0.00 0.00 89 1017.0
20190325025325 70 196 0.0 3.0 0.00 0.00 0.00 88 1016.6
20190324235323 74 130 0.0 4.0 0.00 0.00 0.00 82 1015.7
20190324222354 77 134 1.0 4.0 0.00 0.00 0.00 77 1015.7
20190324215354 76 128 0.0 4.0 0.00 0.00 0.00 78 1016.0
20190324205324 77 150 3.0 5.0 0.00 0.00 0.00 75 1016.4
20190324185324 75 117 0.0 4.0 0.00 0.00 0.00 80 1017.7
20190324182323 74 154 0.0 2.0 0.00 0.00 0.00 83 1018.1
20190324175323 73 155 0.0 3.0 0.00 0.00 0.00 85 1018.4
20190324165324 70 89 0.0 4.0 0.00 0.00 0.00 93 1019.0
20190324162323 68 238 0.0 1.0 0.00 0.00 0.00 95 1019.3
20190324155323 67 238 0.0 0.0 0.00 0.00 0.00 95 1019.4